Time;durP1;ratioP1;P1;durP2;ratioP2;P2;SDS_P1;SDS_P2;PMS_P1;PMS_P2;Temp;Humidity;BMP_temperature;BMP_pressure;BME280_temperature;BME280_humidity;BME280_pressure;Samples;Min_cycle;Max_cycle;Signal;HPM_P1;HPM_P2
2023/01/22 03:31:11;;;;;;;1999.90;999.90;;;;;;;;;;6095957;23;20493;-72
2023/01/22 03:33:57;;;;;;;1999.90;999.90;;;;;;;;;;4965220;28;20447;-72
2023/01/22 03:36:42;;;;;;;1999.90;999.90;;;;;;;;;;4956768;29;20578;-72
2023/01/22 03:39:27;;;;;;;1999.90;999.90;;;;;;;;;;4956950;29;20455;-72
2023/01/22 03:42:12;;;;;;;1999.90;999.90;;;;;;;;;;4956575;29;20482;-72
2023/01/22 03:44:57;;;;;;;1999.90;999.90;;;;;;;;;;4957372;29;20424;-72
2023/01/22 03:47:43;;;;;;;1999.90;999.90;;;;;;;;;;4957926;29;20419;-71
2023/01/22 03:50:28;;;;;;;1999.90;999.90;;;;;;;;;;4957760;29;20561;-72
2023/01/22 03:53:13;;;;;;;1999.90;999.90;;;;;;;;;;4945600;29;20953;-72
2023/01/22 03:55:59;;;;;;;1999.90;999.90;;;;;;;;;;4955572;29;21036;-71
2023/01/22 03:58:44;;;;;;;1999.90;999.90;;;;;;;;;;4953905;29;20581;-68
2023/01/22 04:01:29;;;;;;;1999.90;999.90;;;;;;;;;;4955833;29;20474;-69
2023/01/22 04:04:15;;;;;;;1999.90;999.90;;;;;;;;;;4955395;29;20428;-70
2023/01/22 04:07:00;;;;;;;1999.90;999.90;;;;;;;;;;4955637;29;20504;-71
2023/01/22 04:09:45;;;;;;;1999.90;999.90;;;;;;;;;;4946517;29;20444;-70
2023/01/22 04:12:30;;;;;;;1999.90;999.90;;;;;;;;;;4937373;29;20959;-72
2023/01/22 04:15:15;;;;;;;1999.90;999.90;;;;;;;;;;4935858;29;20450;-72
2023/01/22 04:18:00;;;;;;;1999.90;999.90;;;;;;;;;;4937232;29;20206;-72
2023/01/22 04:20:47;;;;;;;1999.90;999.90;;;;;;;;;;4936459;29;20484;-71
2023/01/22 04:23:32;;;;;;;1999.90;999.90;;;;;;;;;;4936865;29;20442;-71
2023/01/22 04:26:18;;;;;;;1999.90;999.90;;;;;;;;;;4937024;29;20455;-72
2023/01/22 04:29:02;;;;;;;1999.90;999.90;;;;;;;;;;4940039;29;20442;-72
2023/01/22 04:31:48;;;;;;;1999.90;999.90;;;;;;;;;;4939614;29;20557;-72
2023/01/22 04:34:33;;;;;;;1999.90;999.90;;;;;;;;;;4945500;29;20435;-71
2023/01/22 04:37:19;;;;;;;1999.90;999.90;;;;;;;;;;4936425;29;20434;-71
2023/01/22 04:40:05;;;;;;;1999.90;999.90;;;;;;;;;;4938330;29;20219;-72
2023/01/22 04:42:50;;;;;;;1999.90;999.90;;;;;;;;;;4950642;29;20472;-72
2023/01/22 04:45:35;;;;;;;1999.90;999.90;;;;;;;;;;4951898;29;20593;-72
2023/01/22 04:48:20;;;;;;;1999.90;999.90;;;;;;;;;;4947408;29;20429;-72
2023/01/22 04:51:05;;;;;;;1999.90;999.90;;;;;;;;;;4937438;29;20971;-71
2023/01/22 04:53:52;;;;;;;1999.90;999.90;;;;;;;;;;4936277;29;20439;-71
2023/01/22 04:56:37;;;;;;;1999.90;999.90;;;;;;;;;;4939551;29;20532;-71
2023/01/22 04:59:21;;;;;;;1999.90;999.90;;;;;;;;;;4936472;29;20454;-72
2023/01/22 05:02:06;;;;;;;1999.90;999.90;;;;;;;;;;4938228;29;20486;-71
2023/01/22 05:04:51;;;;;;;1999.90;999.90;;;;;;;;;;4943982;29;20527;-71
2023/01/22 05:07:36;;;;;;;1999.90;999.90;;;;;;;;;;4948462;29;20433;-71
2023/01/22 05:10:23;;;;;;;1999.90;999.90;;;;;;;;;;4950630;29;20592;-71
2023/01/22 05:13:07;;;;;;;1999.90;999.90;;;;;;;;;;4941179;29;20465;-72
2023/01/22 05:15:52;;;;;;;1999.90;999.90;;;;;;;;;;4938857;29;20489;-72
2023/01/22 05:18:37;;;;;;;1999.90;999.90;;;;;;;;;;4941163;29;20453;-72
2023/01/22 05:21:22;;;;;;;1999.90;999.90;;;;;;;;;;4951901;29;20476;-71
2023/01/22 05:24:08;;;;;;;1999.90;999.90;;;;;;;;;;4953902;29;20479;-72
2023/01/22 05:26:54;;;;;;;1999.90;999.90;;;;;;;;;;4953185;29;20872;-72
2023/01/22 05:29:39;;;;;;;1999.90;999.90;;;;;;;;;;4936065;29;20434;-71
2023/01/22 05:32:24;;;;;;;1999.90;999.90;;;;;;;;;;4947023;29;20539;-72
2023/01/22 05:35:09;;;;;;;1999.90;999.90;;;;;;;;;;4953831;29;20508;-71
2023/01/22 05:37:56;;;;;;;1999.90;999.90;;;;;;;;;;4935230;29;20420;-71
2023/01/22 05:40:41;;;;;;;1999.90;999.90;;;;;;;;;;4935867;29;20943;-72
2023/01/22 05:43:27;;;;;;;1999.90;999.90;;;;;;;;;;4935591;29;20422;-72
2023/01/22 05:46:12;;;;;;;1999.90;999.90;;;;;;;;;;4947616;29;20817;-71
2023/01/22 05:48:57;;;;;;;1999.90;999.90;;;;;;;;;;4947013;29;20442;-72
2023/01/22 05:51:42;;;;;;;1999.90;999.90;;;;;;;;;;4935261;29;21124;-71
2023/01/22 05:54:27;;;;;;;1999.90;999.90;;;;;;;;;;4937579;29;20795;-72
2023/01/22 05:57:12;;;;;;;1999.90;999.90;;;;;;;;;;4936228;29;20676;-70
2023/01/22 05:59:58;;;;;;;1999.90;999.90;;;;;;;;;;4943780;29;20451;-71
2023/01/22 06:02:43;;;;;;;1999.90;999.90;;;;;;;;;;4946009;29;20861;-71
2023/01/22 06:05:28;;;;;;;1999.90;999.90;;;;;;;;;;4941176;29;20441;-71
2023/01/22 06:08:13;;;;;;;1999.90;999.90;;;;;;;;;;4941245;29;20887;-72
2023/01/22 06:11:00;;;;;;;1999.90;999.90;;;;;;;;;;4934869;29;21025;-70
2023/01/22 06:13:46;;;;;;;1999.90;999.90;;;;;;;;;;4939543;29;20444;-72
2023/01/22 06:16:32;;;;;;;1999.90;999.90;;;;;;;;;;4934840;29;20482;-71
2023/01/22 06:19:17;;;;;;;1999.90;999.90;;;;;;;;;;4937685;29;20428;-71
2023/01/22 06:22:02;;;;;;;1999.90;999.90;;;;;;;;;;4937529;29;20243;-72
2023/01/22 06:24:47;;;;;;;1999.90;999.90;;;;;;;;;;4942905;29;20448;-71
2023/01/22 06:27:32;;;;;;;1999.90;999.90;;;;;;;;;;4946048;29;20436;-71
2023/01/22 06:30:17;;;;;;;1999.90;999.90;;;;;;;;;;4937103;29;20520;-71
2023/01/22 06:33:03;;;;;;;1999.90;999.90;;;;;;;;;;4945584;29;20472;-72
2023/01/22 06:35:52;;;;;;;1999.90;999.90;;;;;;;;;;4940191;29;20427;-71
2023/01/22 06:38:38;;;;;;;1999.90;999.90;;;;;;;;;;4934431;29;20433;-72
2023/01/22 06:41:23;;;;;;;1999.90;999.90;;;;;;;;;;4934599;29;20469;-69
2023/01/22 06:44:08;;;;;;;1999.90;999.90;;;;;;;;;;4947086;29;20436;-70
2023/01/22 06:46:53;;;;;;;1999.90;999.90;;;;;;;;;;4951380;29;20568;-70
2023/01/22 06:49:39;;;;;;;1999.90;999.90;;;;;;;;;;4953164;28;20419;-72
2023/01/22 06:52:24;;;;;;;1999.90;999.90;;;;;;;;;;4957479;29;20437;-69
2023/01/22 06:55:09;;;;;;;1999.90;999.90;;;;;;;;;;4957314;29;20550;-71
2023/01/22 06:57:54;;;;;;;1999.90;999.90;;;;;;;;;;4956447;29;20499;-71
2023/01/22 07:00:39;;;;;;;1999.90;999.90;;;;;;;;;;4953732;29;20436;-72
2023/01/22 07:03:24;;;;;;;1999.90;999.90;;;;;;;;;;4956326;29;20561;-72
2023/01/22 07:06:10;;;;;;;1999.90;999.90;;;;;;;;;;4956332;29;20796;-71
2023/01/22 07:08:56;;;;;;;1999.90;999.90;;;;;;;;;;4957522;29;20468;-71
2023/01/22 07:11:41;;;;;;;1999.90;999.90;;;;;;;;;;4957490;29;20527;-72
2023/01/22 07:14:25;;;;;;;1999.90;999.90;;;;;;;;;;4957391;29;20562;-71
2023/01/22 07:17:10;;;;;;;1999.90;999.90;;;;;;;;;;4953489;29;20445;-70
2023/01/22 07:19:55;;;;;;;1999.90;999.90;;;;;;;;;;4950500;29;20504;-71
2023/01/22 07:22:42;;;;;;;1999.90;999.90;;;;;;;;;;4956391;29;20467;-69
2023/01/22 07:25:27;;;;;;;1999.90;999.90;;;;;;;;;;4956076;29;20652;-68
2023/01/22 07:28:13;;;;;;;1999.90;999.90;;;;;;;;;;4956212;29;20947;-71
2023/01/22 07:30:58;;;;;;;1999.90;999.90;;;;;;;;;;4956500;29;20959;-69
2023/01/22 07:33:43;;;;;;;1999.90;999.90;;;;;;;;;;4955520;29;20408;-71
2023/01/22 07:36:28;;;;;;;1999.90;999.90;;;;;;;;;;4952031;29;20793;-72
2023/01/22 07:39:14;;;;;;;1999.90;999.90;;;;;;;;;;4955810;29;20420;-68
2023/01/22 07:42:00;;;;;;;1999.90;999.90;;;;;;;;;;4952969;28;20476;-71
2023/01/22 07:44:45;;;;;;;1999.90;999.90;;;;;;;;;;4956664;28;20423;-72
2023/01/22 07:47:30;;;;;;;1999.90;999.90;;;;;;;;;;4957577;28;20452;-73
2023/01/22 07:50:15;;;;;;;1999.90;999.90;;;;;;;;;;4953287;28;20447;-71
2023/01/22 07:53:00;;;;;;;1999.90;999.90;;;;;;;;;;4956194;28;20457;-72
2023/01/22 07:55:47;;;;;;;1999.90;999.90;;;;;;;;;;4952471;28;20966;-71
2023/01/22 07:58:32;;;;;;;1999.90;999.90;;;;;;;;;;4959076;28;20431;-71
2023/01/22 08:01:17;;;;;;;1999.90;999.90;;;;;;;;;;4948385;28;20431;-71
2023/01/22 08:04:02;;;;;;;1999.90;999.90;;;;;;;;;;4955196;28;20264;-71
2023/01/22 08:06:47;;;;;;;1999.90;999.90;;;;;;;;;;4957363;28;20471;-71
2023/01/22 08:09:32;;;;;;;1999.90;999.90;;;;;;;;;;4957576;28;20978;-71
2023/01/22 08:12:18;;;;;;;1999.90;999.90;;;;;;;;;;4952920;28;20452;-72
2023/01/22 08:15:02;;;;;;;1999.90;999.90;;;;;;;;;;4953023;28;21005;-71
2023/01/22 08:17:48;;;;;;;1999.90;999.90;;;;;;;;;;4951659;28;20436;-70
2023/01/22 08:20:33;;;;;;;1999.90;999.90;;;;;;;;;;4964746;28;20812;-72
2023/01/22 08:23:18;;;;;;;1999.90;999.90;;;;;;;;;;4958590;28;20591;-71
2023/01/22 08:26:03;;;;;;;1999.90;999.90;;;;;;;;;;4960162;28;20585;-71
2023/01/22 08:28:50;;;;;;;1999.90;999.90;;;;;;;;;;4947555;28;20810;-71
2023/01/22 08:31:35;;;;;;;1999.90;999.90;;;;;;;;;;4953424;28;20990;-71
2023/01/22 08:34:20;;;;;;;1999.90;999.90;;;;;;;;;;4951595;28;20859;-71
2023/01/22 08:37:06;;;;;;;1999.90;999.90;;;;;;;;;;4958303;28;20455;-71
2023/01/22 08:39:51;;;;;;;1999.90;999.90;;;;;;;;;;4956033;28;20435;-71
2023/01/22 08:42:36;;;;;;;1999.90;999.90;;;;;;;;;;4954533;28;20463;-71
2023/01/22 08:45:22;;;;;;;1999.90;999.90;;;;;;;;;;4953794;28;20440;-72
2023/01/22 08:48:07;;;;;;;1999.90;999.90;;;;;;;;;;4935826;29;20446;-71
2023/01/22 08:50:52;;;;;;;1999.90;999.90;;;;;;;;;;4936179;29;20427;-71
2023/01/22 08:53:37;;;;;;;1999.90;999.90;;;;;;;;;;4947014;29;20580;-71
2023/01/22 08:56:22;;;;;;;1999.90;999.90;;;;;;;;;;4936273;29;20417;-72
2023/01/22 08:59:07;;;;;;;1999.90;999.90;;;;;;;;;;4936603;29;20442;-71
2023/01/22 09:01:54;;;;;;;1999.90;999.90;;;;;;;;;;4943447;29;21018;-72
2023/01/22 09:04:40;;;;;;;1999.90;999.90;;;;;;;;;;4951680;29;20577;-71
2023/01/22 09:07:25;;;;;;;1999.90;999.90;;;;;;;;;;4954974;29;20438;-71
2023/01/22 09:10:11;;;;;;;1999.90;999.90;;;;;;;;;;4946861;29;20526;-72
2023/01/22 09:12:58;;;;;;;1999.90;999.90;;;;;;;;;;4935555;29;20320;-71
2023/01/22 09:15:43;;;;;;;1999.90;999.90;;;;;;;;;;4943168;29;20434;-72
2023/01/22 09:18:29;;;;;;;1999.90;999.90;;;;;;;;;;4936032;29;20440;-71
2023/01/22 09:21:14;;;;;;;1999.90;999.90;;;;;;;;;;4941639;29;20668;-73
2023/01/22 09:23:59;;;;;;;1999.90;999.90;;;;;;;;;;4949911;29;20573;-72
2023/01/22 09:26:44;;;;;;;1999.90;999.90;;;;;;;;;;4952375;29;20420;-71
2023/01/22 09:29:29;;;;;;;1999.90;999.90;;;;;;;;;;4954817;29;20789;-72
2023/01/22 09:32:14;;;;;;;1999.90;999.90;;;;;;;;;;4954455;28;20456;-72
2023/01/22 09:35:00;;;;;;;1999.90;999.90;;;;;;;;;;4953792;29;20567;-70
2023/01/22 09:37:45;;;;;;;1999.90;999.90;;;;;;;;;;4945330;29;20439;-71
2023/01/22 09:40:31;;;;;;;1999.90;999.90;;;;;;;;;;4948697;29;20430;-71
2023/01/22 09:43:21;;;;;;;1999.90;999.90;;;;;;;;;;4933860;29;20568;-71
2023/01/22 09:46:08;;;;;;;1999.90;999.90;;;;;;;;;;4936212;29;20528;-71
2023/01/22 09:48:56;;;;;;;1999.90;999.90;;;;;;;;;;4947751;29;20510;-71
2023/01/22 09:51:45;;;;;;;1999.90;999.90;;;;;;;;;;4936511;29;21073;-72
2023/01/22 09:54:30;;;;;;;1999.90;999.90;;;;;;;;;;4950561;29;20539;-70
2023/01/22 09:57:15;;;;;;;1999.90;999.90;;;;;;;;;;4935681;29;20431;-70
2023/01/22 10:00:01;;;;;;;1999.90;999.90;;;;;;;;;;4936718;29;21025;-69
2023/01/22 10:02:48;;;;;;;1999.90;999.90;;;;;;;;;;4934959;29;21027;-69
2023/01/22 10:05:35;;;;;;;1999.90;999.90;;;;;;;;;;4942082;29;20441;-70
2023/01/22 10:08:23;;;;;;;1999.90;999.90;;;;;;;;;;4946365;29;20447;-71
2023/01/22 10:11:08;;;;;;;1999.90;999.90;;;;;;;;;;4939725;29;20992;-70
2023/01/22 10:13:55;;;;;;;1999.90;999.90;;;;;;;;;;4934663;29;20456;-70
2023/01/22 10:16:41;;;;;;;1999.90;999.90;;;;;;;;;;4936040;29;20440;-70
2023/01/22 10:19:27;;;;;;;1999.90;999.90;;;;;;;;;;4937703;29;20445;-71
2023/01/22 10:22:15;;;;;;;1999.90;999.90;;;;;;;;;;4947779;28;20533;-71
2023/01/22 10:25:01;;;;;;;1999.90;999.90;;;;;;;;;;4933481;29;20435;-70
2023/01/22 10:27:55;;;;;;;1999.90;999.90;;;;;;;;;;4936720;29;20485;-70
2023/01/22 10:30:45;;;;;;;1999.90;999.90;;;;;;;;;;4948383;29;20436;-71
2023/01/22 10:44:10;;;;;;;1999.90;999.90;;;;;;;;;;5108962;27;21087;-71
2023/01/22 10:46:55;;;;;;;1999.90;999.90;;;;;;;;;;5097500;28;20506;-71
2023/01/22 10:49:41;;;;;;;1999.90;999.90;;;;;;;;;;5086751;28;20203;-70
2023/01/22 10:52:31;;;;;;;1999.90;999.90;;;;;;;;;;5077441;28;20224;-71
2023/01/22 10:55:20;;;;;;;1999.90;999.90;;;;;;;;;;5087769;28;20223;-71
2023/01/22 10:58:07;;;;;;;1999.90;999.90;;;;;;;;;;5082001;28;20206;-72
2023/01/22 11:00:58;;;;;;;1999.90;999.90;;;;;;;;;;5087715;28;20655;-72
2023/01/22 11:03:43;;;;;;;1999.90;999.90;;;;;;;;;;5088571;28;20258;-71
2023/01/22 11:06:30;;;;;;;1999.90;999.90;;;;;;;;;;5087690;28;20215;-69
2023/01/22 11:09:17;;;;;;;1999.90;999.90;;;;;;;;;;5080216;28;20282;-70
2023/01/22 11:12:07;;;;;;;1999.90;999.90;;;;;;;;;;5086708;28;20477;-70
2023/01/22 11:14:57;;;;;;;1999.90;999.90;;;;;;;;;;5087545;28;20632;-71
2023/01/22 11:17:48;;;;;;;1999.90;999.90;;;;;;;;;;5087568;28;20327;-71
2023/01/22 11:20:45;;;;;;;1999.90;999.90;;;;;;;;;;5088261;28;20467;-71
2023/01/22 11:23:36;;;;;;;1999.90;999.90;;;;;;;;;;5081191;28;20422;-70
2023/01/22 11:26:26;;;;;;;1999.90;999.90;;;;;;;;;;5087681;28;20499;-70
2023/01/22 11:29:16;;;;;;;1999.90;999.90;;;;;;;;;;5087654;28;20327;-70
2023/01/22 11:32:15;;;;;;;1999.90;999.90;;;;;;;;;;5078690;28;20460;-71
2023/01/22 11:35:06;;;;;;;1999.90;999.90;;;;;;;;;;5087178;28;20427;-70
2023/01/22 11:38:00;;;;;;;1999.90;999.90;;;;;;;;;;5081467;28;20435;-71
2023/01/22 11:41:01;;;;;;;1999.90;999.90;;;;;;;;;;5080303;28;20965;-71
2023/01/22 11:43:54;;;;;;;1999.90;999.90;;;;;;;;;;5091192;28;20436;-71
2023/01/22 11:46:44;;;;;;;1999.90;999.90;;;;;;;;;;5093920;28;20520;-71
2023/01/22 11:49:35;;;;;;;1999.90;999.90;;;;;;;;;;5094055;28;20434;-71
2023/01/22 11:52:29;;;;;;;1999.90;999.90;;;;;;;;;;5093538;28;20471;-72
2023/01/22 11:55:26;;;;;;;1999.90;999.90;;;;;;;;;;5092735;28;20485;-70
2023/01/22 11:58:16;;;;;;;1999.90;999.90;;;;;;;;;;5088061;28;20972;-71
2023/01/22 12:01:08;;;;;;;1999.90;999.90;;;;;;;;;;5093909;28;20439;-71
2023/01/22 12:04:06;;;;;;;1999.90;999.90;;;;;;;;;;5086488;28;20491;-71
2023/01/22 12:07:01;;;;;;;1999.90;999.90;;;;;;;;;;5089746;28;20210;-70
2023/01/22 12:09:54;;;;;;;1999.90;999.90;;;;;;;;;;5087803;28;20207;-71
2023/01/22 12:12:42;;;;;;;1999.90;999.90;;;;;;;;;;5087767;28;20227;-69
2023/01/22 12:15:35;;;;;;;1999.90;999.90;;;;;;;;;;5079446;28;20211;-70
2023/01/22 12:18:35;;;;;;;1999.90;999.90;;;;;;;;;;5092574;28;20568;-71
2023/01/22 12:21:26;;;;;;;1999.90;999.90;;;;;;;;;;5078670;28;20229;-71
2023/01/22 12:24:14;;;;;;;1999.90;999.90;;;;;;;;;;5082827;28;20418;-72
2023/01/22 12:27:03;;;;;;;1999.90;999.90;;;;;;;;;;5094301;28;20478;-72
2023/01/22 12:29:52;;;;;;;1999.90;999.90;;;;;;;;;;5094137;28;20496;-71
2023/01/22 12:32:37;;;;;;;1999.90;999.90;;;;;;;;;;5093913;28;20225;-70
2023/01/22 12:35:24;;;;;;;1999.90;999.90;;;;;;;;;;5093964;28;20697;-71
2023/01/22 12:38:14;;;;;;;1999.90;999.90;;;;;;;;;;5094386;28;20417;-72
2023/01/22 12:41:04;;;;;;;1999.90;999.90;;;;;;;;;;5093944;28;20289;-71
2023/01/22 12:43:52;;;;;;;1999.90;999.90;;;;;;;;;;5093964;28;20202;-71
2023/01/22 12:46:43;;;;;;;1999.90;999.90;;;;;;;;;;5093782;28;20424;-72
2023/01/22 12:49:29;;;;;;;1999.90;999.90;;;;;;;;;;5093518;28;20461;-72
2023/01/22 12:52:26;;;;;;;1999.90;999.90;;;;;;;;;;5093448;28;20231;-72
2023/01/22 12:55:22;;;;;;;1999.90;999.90;;;;;;;;;;5092650;28;20200;-72
2023/01/22 12:58:20;;;;;;;1999.90;999.90;;;;;;;;;;5094053;28;20215;-71
2023/01/22 13:01:21;;;;;;;1999.90;999.90;;;;;;;;;;5093740;28;20571;-71
2023/01/22 13:04:10;;;;;;;1999.90;999.90;;;;;;;;;;5093219;28;20200;-71
2023/01/22 13:07:03;;;;;;;1999.90;999.90;;;;;;;;;;5093527;28;20223;-71
2023/01/22 13:09:48;;;;;;;1999.90;999.90;;;;;;;;;;5093451;28;20207;-72
2023/01/22 13:12:38;;;;;;;1999.90;999.90;;;;;;;;;;5093218;28;20231;-71
2023/01/22 13:15:25;;;;;;;1999.90;999.90;;;;;;;;;;5093053;28;20576;-71
2023/01/22 13:18:18;;;;;;;1999.90;999.90;;;;;;;;;;5093371;28;20219;-71
2023/01/22 13:21:04;;;;;;;1999.90;999.90;;;;;;;;;;5093187;28;20553;-71
2023/01/22 13:23:50;;;;;;;1999.90;999.90;;;;;;;;;;5093177;28;20452;-71
2023/01/22 13:26:37;;;;;;;1999.90;999.90;;;;;;;;;;5093511;28;20731;-71
2023/01/22 13:29:23;;;;;;;1999.90;999.90;;;;;;;;;;5093199;28;20498;-71
2023/01/22 13:32:19;;;;;;;1999.90;999.90;;;;;;;;;;5092915;28;20354;-71
2023/01/22 13:35:06;;;;;;;1999.90;999.90;;;;;;;;;;5092693;28;20207;-71
2023/01/22 13:37:51;;;;;;;1999.90;999.90;;;;;;;;;;5092637;28;20624;-71
2023/01/22 13:40:36;;;;;;;1999.90;999.90;;;;;;;;;;5092659;28;20208;-70
2023/01/22 13:43:22;;;;;;;1999.90;999.90;;;;;;;;;;5092496;28;20208;-71
2023/01/22 13:46:12;;;;;;;1999.90;999.90;;;;;;;;;;5092503;28;20207;-71
2023/01/22 13:49:02;;;;;;;1999.90;999.90;;;;;;;;;;5092811;28;20219;-71
2023/01/22 13:51:48;;;;;;;1999.90;999.90;;;;;;;;;;5092557;28;20729;-71
2023/01/22 13:54:35;;;;;;;1999.90;999.90;;;;;;;;;;5092292;28;20219;-72
2023/01/22 13:57:21;;;;;;;1999.90;999.90;;;;;;;;;;5092558;28;20306;-72
2023/01/22 14:00:06;;;;;;;1999.90;999.90;;;;;;;;;;5092195;28;20203;-70
2023/01/22 14:02:52;;;;;;;1999.90;999.90;;;;;;;;;;5092579;28;20848;-70
2023/01/22 14:05:38;;;;;;;1999.90;999.90;;;;;;;;;;5092208;28;20204;-71
2023/01/22 14:08:24;;;;;;;1999.90;999.90;;;;;;;;;;5092274;28;20244;-71
2023/01/22 14:11:10;;;;;;;1999.90;999.90;;;;;;;;;;5092338;28;20218;-71
2023/01/22 14:13:54;;;;;;;1999.90;999.90;;;;;;;;;;5092038;28;20227;-72
2023/01/22 14:16:40;;;;;;;1999.90;999.90;;;;;;;;;;5092141;28;20270;-72
2023/01/22 14:19:24;;;;;;;1999.90;999.90;;;;;;;;;;5092266;28;20334;-71
2023/01/22 14:22:09;;;;;;;1999.90;999.90;;;;;;;;;;5092167;28;20227;-71
2023/01/22 14:24:56;;;;;;;1999.90;999.90;;;;;;;;;;5091904;28;20939;-71
2023/01/22 14:27:42;;;;;;;1999.90;999.90;;;;;;;;;;5091449;28;20751;-71
2023/01/22 14:30:27;;;;;;;1999.90;999.90;;;;;;;;;;5092287;28;20230;-70
2023/01/22 14:33:12;;;;;;;1999.90;999.90;;;;;;;;;;5091770;28;20309;-73
2023/01/22 14:35:57;;;;;;;1999.90;999.90;;;;;;;;;;5091863;28;20203;-71
2023/01/22 14:38:42;;;;;;;1999.90;999.90;;;;;;;;;;5092099;28;20293;-72
2023/01/22 14:41:29;;;;;;;1999.90;999.90;;;;;;;;;;5092436;28;20328;-71
2023/01/22 14:44:13;;;;;;;1999.90;999.90;;;;;;;;;;5091591;28;20260;-70
2023/01/22 14:46:58;;;;;;;1999.90;999.90;;;;;;;;;;5091968;28;20211;-72
2023/01/22 14:49:43;;;;;;;1999.90;999.90;;;;;;;;;;5092019;28;20250;-72
2023/01/22 14:52:28;;;;;;;1999.90;999.90;;;;;;;;;;5091749;28;20222;-72
2023/01/22 14:55:13;;;;;;;1999.90;999.90;;;;;;;;;;5091639;28;20200;-71
2023/01/22 14:58:00;;;;;;;1999.90;999.90;;;;;;;;;;5091940;28;20415;-72
2023/01/22 15:00:45;;;;;;;1999.90;999.90;;;;;;;;;;5091859;28;20207;-71
2023/01/22 15:03:30;;;;;;;1999.90;999.90;;;;;;;;;;5091806;28;20217;-71
2023/01/22 15:06:15;;;;;;;1999.90;999.90;;;;;;;;;;5091615;28;20615;-71
2023/01/22 15:09:00;;;;;;;1999.90;999.90;;;;;;;;;;5091475;28;20212;-71
2023/01/22 15:11:45;;;;;;;1999.90;999.90;;;;;;;;;;5091752;28;20230;-71
2023/01/22 15:14:31;;;;;;;1999.90;999.90;;;;;;;;;;5091280;28;20366;-72
2023/01/22 15:17:16;;;;;;;1999.90;999.90;;;;;;;;;;5091453;28;20204;-71
2023/01/22 15:20:03;;;;;;;1999.90;999.90;;;;;;;;;;5094853;28;20210;-72
2023/01/22 15:22:49;;;;;;;1999.90;999.90;;;;;;;;;;5095608;28;20700;-71
2023/01/22 15:25:34;;;;;;;1999.90;999.90;;;;;;;;;;5095247;28;20268;-72
2023/01/22 15:28:19;;;;;;;1999.90;999.90;;;;;;;;;;5095073;28;20274;-71
2023/01/22 15:31:07;;;;;;;1999.90;999.90;;;;;;;;;;5095330;28;20543;-71
2023/01/22 15:33:52;;;;;;;1999.90;999.90;;;;;;;;;;5095076;28;20223;-71
2023/01/22 15:36:39;;;;;;;1999.90;999.90;;;;;;;;;;5095039;28;20254;-72
2023/01/22 15:39:24;;;;;;;1999.90;999.90;;;;;;;;;;5095340;28;20769;-72
2023/01/22 15:42:09;;;;;;;1999.90;999.90;;;;;;;;;;5093500;28;20410;-71
2023/01/22 15:44:53;;;;;;;1999.90;999.90;;;;;;;;;;5094821;28;20223;-71
2023/01/22 15:47:40;;;;;;;1999.90;999.90;;;;;;;;;;5094897;28;20199;-71
2023/01/22 15:50:25;;;;;;;1999.90;999.90;;;;;;;;;;5094790;28;20334;-71
2023/01/22 15:53:11;;;;;;;1999.90;999.90;;;;;;;;;;5094957;28;20231;-71
2023/01/22 15:55:55;;;;;;;1999.90;999.90;;;;;;;;;;5094721;28;20214;-71
2023/01/22 15:58:40;;;;;;;1999.90;999.90;;;;;;;;;;5094847;28;20262;-71
2023/01/22 16:01:26;;;;;;;1999.90;999.90;;;;;;;;;;5094578;28;20223;-72
2023/01/22 16:04:12;;;;;;;1999.90;999.90;;;;;;;;;;5094806;28;20293;-71
2023/01/22 16:06:57;;;;;;;1999.90;999.90;;;;;;;;;;5093274;28;20405;-71
2023/01/22 16:09:42;;;;;;;1999.90;999.90;;;;;;;;;;5094697;28;20322;-71
2023/01/22 16:12:27;;;;;;;1999.90;999.90;;;;;;;;;;5094306;28;20224;-71
2023/01/22 16:15:12;;;;;;;1999.90;999.90;;;;;;;;;;5094315;28;20199;-71
2023/01/22 16:17:57;;;;;;;1999.90;999.90;;;;;;;;;;5094495;28;20231;-71
2023/01/22 16:20:43;;;;;;;1999.90;999.90;;;;;;;;;;5094468;28;20211;-72
2023/01/22 16:23:29;;;;;;;1999.90;999.90;;;;;;;;;;5094387;28;20219;-72
2023/01/22 16:26:16;;;;;;;1999.90;999.90;;;;;;;;;;5093979;28;20208;-71
2023/01/22 16:29:02;;;;;;;1999.90;999.90;;;;;;;;;;5094285;28;20200;-71
2023/01/22 16:31:47;;;;;;;1999.90;999.90;;;;;;;;;;5093896;28;20304;-72
2023/01/22 16:34:32;;;;;;;1999.90;999.90;;;;;;;;;;5093697;28;20301;-71
2023/01/22 16:37:18;;;;;;;1999.90;999.90;;;;;;;;;;5094073;28;20250;-71
2023/01/22 16:40:03;;;;;;;1999.90;999.90;;;;;;;;;;5094085;28;20218;-72
2023/01/22 16:42:56;;;;;;;1999.90;999.90;;;;;;;;;;5095434;28;20346;-71
2023/01/22 16:45:42;;;;;;;1999.90;999.90;;;;;;;;;;5093449;28;20430;-72
2023/01/22 16:48:27;;;;;;;1999.90;999.90;;;;;;;;;;5093902;28;20200;-71
2023/01/22 16:51:15;;;;;;;1999.90;999.90;;;;;;;;;;5093860;28;20412;-71
2023/01/22 16:54:01;;;;;;;1999.90;999.90;;;;;;;;;;5093731;28;20227;-71
2023/01/22 16:56:46;;;;;;;1999.90;999.90;;;;;;;;;;5093748;28;20412;-71
2023/01/22 16:59:32;;;;;;;1999.90;999.90;;;;;;;;;;5093682;28;20207;-70
2023/01/22 17:02:18;;;;;;;1999.90;999.90;;;;;;;;;;5093525;28;20225;-72
2023/01/22 17:05:05;;;;;;;1999.90;999.90;;;;;;;;;;5093295;28;20226;-71
2023/01/22 17:07:50;;;;;;;1999.90;999.90;;;;;;;;;;5093621;28;20200;-70
2023/01/22 17:10:36;;;;;;;1999.90;999.90;;;;;;;;;;5094569;28;20214;-72
2023/01/22 17:13:21;;;;;;;1999.90;999.90;;;;;;;;;;5093890;28;20204;-71
2023/01/22 17:16:07;;;;;;;1999.90;999.90;;;;;;;;;;5093181;28;20204;-72
2023/01/22 17:18:53;;;;;;;1999.90;999.90;;;;;;;;;;5093703;28;20200;-72
2023/01/22 17:21:38;;;;;;;1999.90;999.90;;;;;;;;;;5093414;28;20405;-72
2023/01/22 17:24:23;;;;;;;1999.90;999.90;;;;;;;;;;5093439;28;20203;-72
2023/01/22 17:27:16;;;;;;;1999.90;999.90;;;;;;;;;;5093435;28;20334;-71
2023/01/22 17:30:04;;;;;;;1999.90;999.90;;;;;;;;;;5093295;28;20211;-72
2023/01/22 17:32:49;;;;;;;1999.90;999.90;;;;;;;;;;5093246;28;20410;-71
2023/01/22 17:35:34;;;;;;;1999.90;999.90;;;;;;;;;;5092746;28;20334;-72
2023/01/22 17:38:19;;;;;;;1999.90;999.90;;;;;;;;;;5092990;28;20203;-72
2023/01/22 17:41:05;;;;;;;1999.90;999.90;;;;;;;;;;5092321;28;20199;-72
2023/01/22 17:43:54;;;;;;;1999.90;999.90;;;;;;;;;;5092831;28;20212;-71
2023/01/22 17:46:39;;;;;;;1999.90;999.90;;;;;;;;;;5091679;28;20377;-72
2023/01/22 17:49:24;;;;;;;1999.90;999.90;;;;;;;;;;5092414;28;20219;-72
2023/01/22 17:52:10;;;;;;;1999.90;999.90;;;;;;;;;;5092894;28;20231;-72
2023/01/22 17:54:55;;;;;;;1999.90;999.90;;;;;;;;;;5092162;28;20227;-72
2023/01/22 17:57:40;;;;;;;1999.90;999.90;;;;;;;;;;5092578;28;20409;-72
2023/01/22 18:00:26;;;;;;;1999.90;999.90;;;;;;;;;;5092710;28;20582;-71
2023/01/22 18:03:13;;;;;;;1999.90;999.90;;;;;;;;;;5092301;28;20913;-72
2023/01/22 18:05:58;;;;;;;1999.90;999.90;;;;;;;;;;5092135;28;20249;-71
2023/01/22 18:08:43;;;;;;;1999.90;999.90;;;;;;;;;;5092689;28;20203;-72
2023/01/22 18:11:28;;;;;;;1999.90;999.90;;;;;;;;;;5092344;28;20860;-72
2023/01/22 18:14:15;;;;;;;1999.90;999.90;;;;;;;;;;5092122;28;20220;-70
2023/01/22 18:17:02;;;;;;;1999.90;999.90;;;;;;;;;;5092391;28;20553;-71
2023/01/22 18:19:46;;;;;;;1999.90;999.90;;;;;;;;;;5092226;28;20581;-71
2023/01/22 18:22:32;;;;;;;1999.90;999.90;;;;;;;;;;5092202;28;20513;-72
2023/01/22 18:25:17;;;;;;;1999.90;999.90;;;;;;;;;;5091960;28;20415;-72
2023/01/22 18:28:02;;;;;;;1999.90;999.90;;;;;;;;;;5092276;28;20551;-72
2023/01/22 18:30:47;;;;;;;1999.90;999.90;;;;;;;;;;5092209;28;20423;-71
2023/01/22 18:33:34;;;;;;;1999.90;999.90;;;;;;;;;;5092010;28;20498;-71
2023/01/22 18:36:21;;;;;;;1999.90;999.90;;;;;;;;;;5091679;28;20215;-72
2023/01/22 18:39:07;;;;;;;1999.90;999.90;;;;;;;;;;5092181;28;20250;-71
2023/01/22 18:41:52;;;;;;;1999.90;999.90;;;;;;;;;;5092006;28;20228;-71
2023/01/22 18:44:38;;;;;;;1999.90;999.90;;;;;;;;;;5091752;28;20201;-71
2023/01/22 18:47:23;;;;;;;1999.90;999.90;;;;;;;;;;5091752;28;20784;-72
2023/01/22 18:50:12;;;;;;;1999.90;999.90;;;;;;;;;;5091960;28;20211;-70
2023/01/22 18:52:59;;;;;;;1999.90;999.90;;;;;;;;;;5091942;28;20508;-71
2023/01/22 18:55:44;;;;;;;1999.90;999.90;;;;;;;;;;5095463;28;20464;-72
2023/01/22 18:58:31;;;;;;;1999.90;999.90;;;;;;;;;;5095799;28;20407;-72
2023/01/22 19:01:17;;;;;;;1999.90;999.90;;;;;;;;;;5095808;28;20590;-72
2023/01/22 19:04:04;;;;;;;1999.90;999.90;;;;;;;;;;5094355;28;20394;-72
2023/01/22 19:06:51;;;;;;;1999.90;999.90;;;;;;;;;;5095876;28;20204;-71
2023/01/22 19:09:37;;;;;;;1999.90;999.90;;;;;;;;;;5095829;28;20353;-69